Time;durP1;ratioP1;P1;durP2;ratioP2;P2;SDS_P1;SDS_P2;PMS_P1;PMS_P2;Temp;Humidity;BMP_temperature;BMP_pressure;BME280_temperature;BME280_humidity;BME280_pressure;Samples;Min_cycle;Max_cycle;Signal;HPM_P1;HPM_P2
2023/03/14 00:00:20;;;;;;;;;1.00;1.00;;;;;12.87;65.40;98935.31;5017550;28;45392;-64
2023/03/14 00:02:51;;;;;;;;;2.00;0.67;;;;;12.88;65.09;98929.91;5016791;28;45565;-64
2023/03/14 00:05:16;;;;;;;;;2.33;1.00;;;;;12.90;64.86;98933.47;5016178;28;45272;-63
2023/03/14 00:07:42;;;;;;;;;5.33;1.00;;;;;12.77;65.22;98898.78;5021633;28;46830;-64
2023/03/14 00:10:13;;;;;;;;;1.00;0.00;;;;;12.94;65.86;98920.03;5035206;28;45030;-62
2023/03/14 00:12:38;;;;;;;;;4.33;1.00;;;;;12.92;65.60;98925.41;5034817;28;46006;-62
2023/03/14 00:15:06;;;;;;;;;3.00;1.00;;;;;12.91;66.17;98921.81;5029915;28;45332;-63
2023/03/14 00:17:32;;;;;;;;;1.33;1.00;;;;;12.87;64.76;98921.91;5033465;28;45055;-63
2023/03/14 00:20:03;;;;;;;;;1.00;0.00;;;;;12.86;65.36;98923.69;5034563;28;45628;-63
2023/03/14 00:22:29;;;;;;;;;2.33;1.33;;;;;12.76;65.10;98907.75;5027016;28;45572;-64
2023/03/14 00:24:54;;;;;;;;;2.00;0.33;;;;;12.81;66.00;98922.84;5038061;28;45024;-64
2023/03/14 00:27:20;;;;;;;;;1.00;0.00;;;;;12.79;66.99;98930.03;5029858;28;58060;-64
2023/03/14 00:29:45;;;;;;;;;1.00;1.00;;;;;12.46;66.96;98862.53;5029539;28;45420;-64
2023/03/14 00:32:10;;;;;;;;;0.00;0.00;;;;;12.74;66.42;98905.09;5032172;28;45867;-64
2023/03/14 00:34:36;;;;;;;;;0.00;0.00;;;;;12.71;67.42;98895.28;5031206;28;45397;-64
2023/03/14 00:37:01;;;;;;;;;3.00;0.00;;;;;12.70;67.12;98897.97;5030056;28;45585;-64
2023/03/14 00:39:26;;;;;;;;;0.00;0.00;;;;;12.64;67.36;98893.59;5031302;28;45115;-64
2023/03/14 00:41:52;;;;;;;;;0.00;0.00;;;;;12.64;67.28;98892.72;5033880;28;45168;-64
2023/03/14 00:44:17;;;;;;;;;0.00;0.00;;;;;12.64;67.82;98898.94;5031394;28;45109;-64
2023/03/14 00:46:42;;;;;;;;;0.67;0.00;;;;;12.64;67.21;98904.31;5039450;28;45177;-63
2023/03/14 00:49:08;;;;;;;;;0.00;0.00;;;;;12.64;67.89;98890.91;5033734;28;45245;-63
2023/03/14 00:51:33;;;;;;;;;1.00;0.00;;;;;12.66;67.42;98896.25;5034563;28;45042;-63
2023/03/14 00:53:59;;;;;;;;;3.00;1.00;;;;;12.67;67.24;98892.66;5031832;28;45557;-65
2023/03/14 00:56:25;;;;;;;;;1.00;0.00;;;;;12.65;67.29;98889.09;5032070;28;46174;-63
2023/03/14 00:58:53;;;;;;;;;2.00;0.33;;;;;12.67;67.16;98887.28;5017425;28;45383;-63
2023/03/14 01:01:19;;;;;;;;;0.00;0.00;;;;;12.64;68.13;98887.34;5029332;28;45133;-63
2023/03/14 01:03:45;;;;;;;;;1.00;0.00;;;;;12.62;67.44;98897.19;5013119;28;45351;-64
2023/03/14 01:06:14;;;;;;;;;2.00;0.00;;;;;12.58;68.77;98892.78;5029404;28;45405;-63
2023/03/14 01:08:40;;;;;;;;;0.00;0.00;;;;;12.52;68.44;98874.97;5030941;28;45271;-64
2023/03/14 01:11:08;;;;;;;;;1.33;1.00;;;;;12.55;68.59;98893.69;5030490;28;45093;-64
2023/03/14 01:13:33;;;;;;;;;3.00;0.67;;;;;12.54;69.03;98875.84;5032204;28;45106;-64
2023/03/14 01:16:07;;;;;;;;;1.67;0.67;;;;;12.57;68.41;98877.59;5027021;28;58943;-63
2023/03/14 01:18:35;;;;;;;;;2.00;1.00;;;;;12.52;69.24;98883.91;5030756;28;44963;-64
2023/03/14 01:21:01;;;;;;;;;0.00;0.00;;;;;12.45;68.31;98879.50;5033900;28;45242;-64
2023/03/14 01:23:27;;;;;;;;;2.33;1.00;;;;;12.46;68.39;98888.44;5035765;28;45248;-64
2023/03/14 01:25:52;;;;;;;;;3.67;1.00;;;;;12.46;68.75;98888.44;5030565;28;45488;-64
2023/03/14 01:28:18;;;;;;;;;2.00;0.00;;;;;12.42;68.31;98884.00;5038234;28;45181;-64
2023/03/14 01:30:43;;;;;;;;;0.33;0.33;;;;;12.18;68.86;98835.19;5033684;28;46237;-64
2023/03/14 01:33:08;;;;;;;;;2.00;1.00;;;;;12.45;68.97;98878.63;5030451;28;45277;-64
2023/03/14 01:35:34;;;;;;;;;0.33;0.00;;;;;12.48;68.32;98868.75;5030960;28;48237;-64
2023/03/14 01:37:59;;;;;;;;;1.00;1.00;;;;;12.50;68.63;98866.94;5031471;28;45369;-64
2023/03/14 01:40:24;;;;;;;;;3.00;1.33;;;;;12.52;68.09;98881.22;5031170;28;45197;-64
2023/03/14 01:43:04;;;;;;;;;1.67;1.67;;;;;12.49;68.41;98867.00;5033689;28;45236;-65
2023/03/14 01:46:04;;;;;;;;;1.33;0.00;;;;;12.57;68.26;98872.22;5028364;28;45615;-65
2023/03/14 01:48:55;;;;;;;;;0.33;0.00;;;;;12.54;68.20;98874.06;5030348;28;45031;-64
2023/03/14 01:51:52;;;;;;;;;4.00;1.00;;;;;12.55;69.08;98882.97;5029948;28;45145;-64
2023/03/14 01:54:46;;;;;;;;;1.00;0.67;;;;;12.52;69.14;98877.63;5036510;28;45259;-65
2023/03/14 01:57:15;;;;;;;;;1.33;1.00;;;;;12.47;69.16;98868.78;5031400;28;46157;-64
2023/03/14 01:59:45;;;;;;;;;1.67;0.00;;;;;12.51;69.44;98878.56;5035798;28;44844;-64
2023/03/14 02:02:12;;;;;;;;;0.67;0.67;;;;;12.48;69.64;98878.59;5030440;28;45298;-65
2023/03/14 02:04:38;;;;;;;;;3.33;0.00;;;;;12.50;69.32;98884.81;5028999;28;45344;-64
2023/03/14 02:07:17;;;;;;;;;0.00;0.00;;;;;12.54;69.16;98891.94;5034313;28;45748;-64
2023/03/14 02:09:44;;;;;;;;;0.00;0.00;;;;;12.45;70.18;98882.19;5028545;28;45235;-64
2023/03/14 02:12:13;;;;;;;;;0.00;0.00;;;;;12.53;70.00;98895.50;5034204;28;45168;-64
2023/03/14 02:14:40;;;;;;;;;1.00;1.00;;;;;12.52;70.35;98891.03;5034339;28;45380;-64
2023/03/14 02:17:07;;;;;;;;;0.00;0.00;;;;;12.54;69.94;98886.56;5031738;28;46646;-65
2023/03/14 02:19:54;;;;;;;;;2.33;0.67;;;;;12.54;69.21;98887.44;5032881;28;45184;-64
2023/03/14 02:22:20;;;;;;;;;0.00;0.00;;;;;12.52;69.30;98883.00;5042111;28;45252;-64
2023/03/14 02:25:00;;;;;;;;;3.00;0.00;;;;;12.53;70.18;98888.34;5032442;28;45236;-64
2023/03/14 02:27:26;;;;;;;;;0.33;0.33;;;;;12.51;70.47;98886.59;5032623;28;45068;-64
2023/03/14 02:29:59;;;;;;;;;1.00;0.00;;;;;12.50;70.56;98885.69;5033478;28;45363;-64
2023/03/14 02:32:27;;;;;;;;;0.33;0.33;;;;;12.43;70.87;98872.41;5031949;28;45620;-64
2023/03/14 02:34:57;;;;;;;;;7.67;0.00;;;;;12.44;70.11;98864.38;5038270;28;45191;-64
2023/03/14 02:37:28;;;;;;;;;0.33;0.00;;;;;12.54;70.38;98878.53;5030893;28;46367;-65
2023/03/14 02:39:54;;;;;;;;;1.33;0.00;;;;;12.54;70.06;98882.09;5031247;28;45192;-64
2023/03/14 02:42:20;;;;;;;;;0.00;0.00;;;;;12.54;70.85;98876.72;5034370;28;45045;-64
2023/03/14 02:44:52;;;;;;;;;0.00;0.00;;;;;12.54;70.92;98881.22;5036579;28;45176;-64
2023/03/14 02:47:20;;;;;;;;;0.00;0.00;;;;;12.56;71.26;98876.72;5034331;28;45115;-64
2023/03/14 02:49:46;;;;;;;;;1.00;0.00;;;;;12.33;71.44;98826.97;5032211;28;45068;-64
2023/03/14 02:52:11;;;;;;;;;0.00;0.00;;;;;12.57;72.00;98875.78;5034863;28;45170;-64
2023/03/14 02:54:37;;;;;;;;;1.00;0.00;;;;;12.58;72.89;98872.22;5036510;28;45210;-65
2023/03/14 02:57:03;;;;;;;;;2.67;1.33;;;;;12.57;73.06;98873.13;5033781;28;50965;-64
2023/03/14 02:59:28;;;;;;;;;0.33;0.33;;;;;12.53;72.82;98869.59;5032959;28;45056;-64
2023/03/14 03:01:53;;;;;;;;;0.00;0.00;;;;;12.51;73.21;98876.75;5034370;28;44952;-64
2023/03/14 03:04:19;;;;;;;;;2.00;0.00;;;;;12.52;73.94;98873.19;5034252;28;44993;-64
2023/03/14 03:06:44;;;;;;;;;0.00;0.00;;;;;12.44;73.15;98863.44;5032167;28;46018;-63
2023/03/14 03:09:09;;;;;;;;;0.00;0.00;;;;;12.46;73.40;98878.63;5032447;28;53132;-64
2023/03/14 03:11:35;;;;;;;;;0.00;0.00;;;;;12.42;72.83;98867.94;5033472;28;45137;-64
2023/03/14 03:14:00;;;;;;;;;0.00;0.00;;;;;12.48;73.18;98886.63;5030813;28;45694;-64
2023/03/14 03:16:25;;;;;;;;;0.00;0.00;;;;;12.49;73.96;98883.94;5035969;28;45573;-64
2023/03/14 03:18:51;;;;;;;;;1.67;0.00;;;;;12.50;73.65;98890.16;5032935;28;51185;-64
2023/03/14 03:21:16;;;;;;;;;0.00;0.00;;;;;12.47;73.72;98882.16;5034516;28;45158;-65
2023/03/14 03:23:41;;;;;;;;;1.00;0.00;;;;;12.37;74.27;98865.31;5032540;28;45037;-65
2023/03/14 03:26:09;;;;;;;;;0.00;0.00;;;;;12.49;74.74;98886.63;5036686;28;59599;-64
2023/03/14 03:28:34;;;;;;;;;0.00;0.00;;;;;12.46;74.34;98889.31;5033345;28;45766;-65
2023/03/14 03:31:07;;;;;;;;;0.00;0.00;;;;;12.44;74.63;98885.78;5032622;28;45121;-65
2023/03/14 03:33:33;;;;;;;;;0.00;0.00;;;;;12.48;75.11;98883.97;5039818;28;45025;-64
2023/03/14 03:35:58;;;;;;;;;0.00;0.00;;;;;12.52;75.45;98896.41;5033833;28;45300;-65
2023/03/14 03:38:23;;;;;;;;;0.00;0.00;;;;;12.48;74.63;98892.00;5034976;28;45181;-64
2023/03/14 03:40:48;;;;;;;;;1.00;1.00;;;;;12.48;75.06;98903.59;5031170;28;58229;-63
2023/03/14 03:43:14;;;;;;;;;0.67;0.00;;;;;12.51;75.09;98900.00;5035773;28;54116;-64
2023/03/14 03:45:40;;;;;;;;;0.00;0.00;;;;;12.44;74.95;98887.56;5041825;28;45584;-64
2023/03/14 03:48:05;;;;;;;;;1.00;0.00;;;;;12.47;75.37;98899.16;5031246;28;45268;-65
2023/03/14 03:50:30;;;;;;;;;0.00;0.00;;;;;12.43;75.90;98899.19;5040256;28;45218;-65
2023/03/14 03:52:56;;;;;;;;;0.00;0.00;;;;;12.46;75.52;98905.41;5034264;28;45145;-64
2023/03/14 03:55:21;;;;;;;;;0.00;0.00;;;;;12.43;75.52;98905.44;5031295;28;50506;-64
2023/03/14 03:57:46;;;;;;;;;0.00;0.00;;;;;12.45;75.10;98905.41;5035174;28;45098;-63
2023/03/14 04:00:12;;;;;;;;;0.00;0.00;;;;;12.44;75.30;98909.88;5033041;28;44954;-65
2023/03/14 04:02:38;;;;;;;;;0.00;0.00;;;;;12.45;76.06;98913.44;5034687;28;45015;-64
2023/03/14 04:05:03;;;;;;;;;0.00;0.00;;;;;12.46;75.39;98917.91;5036703;28;46632;-64
2023/03/14 04:07:31;;;;;;;;;0.00;0.00;;;;;12.46;75.56;98912.56;5033110;28;45004;-64
2023/03/14 04:09:57;;;;;;;;;0.00;0.00;;;;;12.51;75.73;98918.75;5029621;28;45186;-65
2023/03/14 04:12:22;;;;;;;;;0.00;0.00;;;;;12.52;75.28;98916.06;5035828;28;45264;-64
2023/03/14 04:14:47;;;;;;;;;0.00;0.00;;;;;12.49;74.91;98925.91;5037861;28;58557;-64
2023/03/14 04:17:13;;;;;;;;;0.00;0.00;;;;;12.50;74.95;98930.34;5031186;28;45130;-65
2023/03/14 04:19:38;;;;;;;;;0.00;0.00;;;;;12.50;75.19;98933.03;5033791;28;45274;-64
2023/03/14 04:22:03;;;;;;;;;0.00;0.00;;;;;12.47;76.17;98927.69;5034472;28;45236;-64
2023/03/14 04:24:29;;;;;;;;;0.00;0.00;;;;;12.51;75.88;98945.53;5033767;28;46006;-64
2023/03/14 04:26:54;;;;;;;;;0.00;0.00;;;;;12.51;76.05;98945.53;5036577;28;45205;-64
2023/03/14 04:29:19;;;;;;;;;0.00;0.00;;;;;12.47;77.19;98941.09;5032939;28;45022;-65
2023/03/14 04:31:45;;;;;;;;;1.00;0.00;;;;;12.49;76.63;98953.59;5031140;28;45042;-65
2023/03/14 04:34:10;;;;;;;;;0.00;0.00;;;;;12.50;77.50;98951.78;5039349;28;46280;-63
2023/03/14 04:36:35;;;;;;;;;0.00;0.00;;;;;12.39;76.97;98946.56;5020600;28;47507;-64
2023/03/14 04:39:01;;;;;;;;;0.00;0.00;;;;;12.49;77.23;98964.28;5038615;28;45255;-66
2023/03/14 04:41:26;;;;;;;;;0.00;0.00;;;;;12.48;77.15;98975.91;5032925;28;44983;-65
2023/03/14 04:43:51;;;;;;;;;2.00;0.00;;;;;12.45;77.74;98972.38;5032802;28;45671;-64
2023/03/14 04:46:17;;;;;;;;;0.00;0.00;;;;;12.46;77.48;98969.69;5032116;28;45131;-64
2023/03/14 04:48:42;;;;;;;;;0.00;0.00;;;;;12.48;78.13;98996.44;5034393;28;45184;-64
2023/03/14 04:51:07;;;;;;;;;0.00;0.00;;;;;12.47;77.91;98995.56;5031410;28;45264;-64
2023/03/14 04:53:33;;;;;;;;;1.00;0.00;;;;;12.47;77.75;99021.44;5016895;28;45886;-64
2023/03/14 04:55:59;;;;;;;;;0.00;0.00;;;;;12.34;77.01;99024.25;5031312;28;45256;-64
2023/03/14 04:58:24;;;;;;;;;0.00;0.00;;;;;12.12;73.36;99054.75;5030968;28;45125;-64
2023/03/14 05:00:50;;;;;;;;;0.00;0.00;;;;;12.02;72.87;99095.88;5031923;28;45171;-64
2023/03/14 05:03:17;;;;;;;;;0.00;0.00;;;;;11.80;71.70;99087.94;5034435;28;45115;-63
2023/03/14 05:05:42;;;;;;;;;0.00;0.00;;;;;11.83;70.21;99117.38;5038318;28;45121;-63
2023/03/14 05:08:08;;;;;;;;;6.00;2.00;;;;;11.69;68.91;99117.41;5030786;28;44975;-63
2023/03/14 05:10:33;;;;;;;;;2.00;0.67;;;;;11.61;67.48;99117.47;5032149;28;45106;-64
2023/03/14 05:12:59;;;;;;;;;1.00;1.00;;;;;11.58;66.98;99137.97;5038083;28;45324;-64
2023/03/14 05:15:24;;;;;;;;;3.33;1.33;;;;;11.51;65.87;99147.81;5015227;28;45480;-63
2023/03/14 05:17:51;;;;;;;;;1.00;1.00;;;;;11.47;65.59;99145.16;5031817;28;45015;-63
2023/03/14 05:20:16;;;;;;;;;3.33;0.67;;;;;11.36;65.27;99147.84;5030743;28;45102;-63
2023/03/14 05:22:42;;;;;;;;;1.00;1.00;;;;;11.31;65.05;99171.03;5009122;28;45245;-64
2023/03/14 05:25:08;;;;;;;;;2.33;2.33;;;;;11.21;64.95;99183.53;5008458;28;45154;-64
2023/03/14 05:27:34;;;;;;;;;2.00;2.00;;;;;11.17;65.17;99188.00;5030317;28;44943;-64
2023/03/14 05:29:59;;;;;;;;;1.00;1.00;;;;;11.20;64.89;99201.38;5031929;28;46394;-64
2023/03/14 05:32:25;;;;;;;;;1.00;1.00;;;;;11.18;64.41;99196.91;5030995;28;44973;-64
2023/03/14 05:34:50;;;;;;;;;4.00;2.00;;;;;11.14;64.23;99206.72;5037176;28;45244;-64
2023/03/14 05:37:16;;;;;;;;;1.00;1.00;;;;;11.13;64.58;99204.91;5030949;28;45475;-63
2023/03/14 05:39:41;;;;;;;;;4.67;2.67;;;;;11.18;64.22;99229.84;5031242;28;45222;-65
2023/03/14 05:42:06;;;;;;;;;4.00;2.00;;;;;11.23;64.58;99243.22;5034852;28;45188;-63
2023/03/14 05:44:32;;;;;;;;;2.00;2.00;;;;;11.31;64.47;99237.88;5033721;28;45473;-64
2023/03/14 05:46:57;;;;;;;;;4.00;2.00;;;;;11.29;64.16;99245.03;5030781;28;45461;-65
2023/03/14 05:49:22;;;;;;;;;5.00;2.00;;;;;11.31;63.44;99276.19;5009477;28;45593;-65
2023/03/14 05:51:48;;;;;;;;;2.67;2.67;;;;;11.21;63.95;99269.97;5017151;28;47800;-65
2023/03/14 05:54:13;;;;;;;;;6.75;3.75;;;;;11.26;63.00;99291.34;5015914;28;45597;-65
2023/03/14 05:56:38;;;;;;;;;5.75;3.00;;;;;11.28;63.23;99302.03;5015308;28;45492;-65
2023/03/14 05:59:04;;;;;;;;;1.00;1.00;;;;;11.30;62.15;99318.97;5015952;28;45738;-65
2023/03/14 06:01:30;;;;;;;;;6.00;2.33;;;;;11.25;62.64;99332.34;4995065;28;45522;-65
2023/03/14 06:03:55;;;;;;;;;2.00;2.00;;;;;11.20;61.87;99328.78;5013507;28;45798;-65
2023/03/14 06:06:21;;;;;;;;;6.00;3.00;;;;;11.12;61.24;99339.47;5012865;28;45559;-65
2023/03/14 06:08:46;;;;;;;;;2.00;1.33;;;;;11.09;60.25;99352.81;5026654;28;45343;-65
2023/03/14 06:11:11;;;;;;;;;2.33;1.33;;;;;11.03;61.08;99363.50;5026738;28;45352;-63
2023/03/14 06:13:37;;;;;;;;;2.00;1.00;;;;;10.94;60.22;99355.44;5034283;28;45160;-65
2023/03/14 06:16:02;;;;;;;;;2.00;2.00;;;;;10.81;59.64;99376.81;5027143;28;45228;-65
2023/03/14 06:18:27;;;;;;;;;3.00;3.00;;;;;10.76;60.08;99396.38;5029692;28;45307;-66
2023/03/14 06:20:55;;;;;;;;;2.00;2.00;;;;;10.50;59.28;99373.13;5029023;28;45701;-65
2023/03/14 06:23:21;;;;;;;;;2.25;1.00;;;;;10.60;58.77;99406.09;5027496;28;45324;-64
2023/03/14 06:25:46;;;;;;;;;3.50;2.75;;;;;10.46;58.78;99414.94;5032298;28;45309;-64
2023/03/14 06:28:11;;;;;;;;;1.33;1.33;;;;;10.48;58.63;99428.31;5011866;28;45197;-65
2023/03/14 06:30:37;;;;;;;;;3.00;3.00;;;;;10.53;58.60;99431.00;5032742;28;46413;-65
2023/03/14 06:33:02;;;;;;;;;6.50;3.25;;;;;10.54;58.01;99435.44;5029795;28;45129;-65
2023/03/14 06:35:28;;;;;;;;;2.50;2.25;;;;;10.60;57.27;99457.72;5029713;28;45122;-64
2023/03/14 06:37:53;;;;;;;;;4.25;2.75;;;;;10.64;57.59;99472.91;5035830;28;45422;-65
2023/03/14 06:40:19;;;;;;;;;5.25;3.00;;;;;10.62;56.92;99484.44;4998760;28;46195;-63
2023/03/14 06:42:45;;;;;;;;;4.00;2.25;;;;;10.63;56.45;99484.47;5016436;28;45500;-63
2023/03/14 06:45:11;;;;;;;;;5.50;3.50;;;;;10.69;56.93;99494.28;5022426;28;45544;-64
2023/03/14 06:47:38;;;;;;;;;5.00;3.50;;;;;10.69;55.61;99511.22;5016665;28;45607;-64
2023/03/14 06:50:04;;;;;;;;;3.25;3.25;;;;;10.66;56.08;99532.56;5018402;28;46195;-64
2023/03/14 06:52:30;;;;;;;;;6.00;3.00;;;;;10.63;55.98;99539.66;5015991;28;45547;-64
2023/03/14 06:54:57;;;;;;;;;3.00;2.00;;;;;10.54;55.94;99532.47;5014025;28;45349;-65
2023/03/14 06:57:22;;;;;;;;;7.00;3.75;;;;;10.55;56.01;99552.06;5023923;28;45504;-66
2023/03/14 06:59:47;;;;;;;;;6.50;5.00;;;;;10.56;55.85;99551.19;5017212;28;45995;-65
2023/03/14 07:02:13;;;;;;;;;9.50;7.00;;;;;10.38;56.59;99533.25;5020935;28;45253;-66
2023/03/14 07:04:38;;;;;;;;;5.75;5.00;;;;;10.54;55.58;99560.97;4998116;28;45722;-64
2023/03/14 07:07:05;;;;;;;;;4.00;4.00;;;;;10.54;56.04;99569.84;5019185;28;45378;-64
2023/03/14 07:09:30;;;;;;;;;6.25;5.75;;;;;10.59;56.19;99586.84;5010355;28;46382;-66
2023/03/14 07:11:56;;;;;;;;;2.50;2.50;;;;;10.58;55.08;99593.06;5024940;28;45528;-64
2023/03/14 07:14:21;;;;;;;;;4.33;3.33;;;;;10.44;55.58;99592.03;5021513;28;45713;-64
2023/03/14 07:16:46;;;;;;;;;1.33;1.00;;;;;10.33;55.27;99595.50;5034063;28;45265;-64
2023/03/14 07:19:12;;;;;;;;;5.00;1.00;;;;;10.37;55.68;99611.56;5024481;28;47262;-64
2023/03/14 07:21:37;;;;;;;;;3.00;3.00;;;;;10.30;54.88;99603.47;5015436;28;45453;-64
2023/03/14 07:24:03;;;;;;;;;1.00;1.00;;;;;10.35;54.97;99616.88;5016500;28;45483;-66
2023/03/14 07:26:28;;;;;;;;;4.50;2.75;;;;;10.45;55.01;99625.88;5016271;28;45398;-65
2023/03/14 07:28:54;;;;;;;;;3.00;2.00;;;;;10.50;54.57;99643.72;5018755;28;45361;-65
2023/03/14 07:31:19;;;;;;;;;5.25;3.00;;;;;10.54;54.22;99649.97;5016061;28;45638;-66
2023/03/14 07:33:44;;;;;;;;;6.50;2.00;;;;;10.56;54.38;99652.66;5016231;28;45643;-66
2023/03/14 07:36:10;;;;;;;;;1.33;1.33;;;;;10.66;53.79;99668.78;4998299;28;45440;-64
2023/03/14 07:38:35;;;;;;;;;5.00;5.00;;;;;10.59;53.14;99658.94;5009812;28;47985;-65
2023/03/14 07:41:03;;;;;;;;;3.00;1.00;;;;;10.66;52.45;99673.25;5024156;28;45448;-65
2023/03/14 07:43:29;;;;;;;;;2.00;1.00;;;;;10.62;52.64;99671.41;5024228;28;45558;-65
2023/03/14 07:45:54;;;;;;;;;1.00;1.00;;;;;10.73;52.64;99704.47;5015714;28;45641;-66
2023/03/14 07:48:21;;;;;;;;;2.00;2.00;;;;;10.80;52.65;99703.63;5014098;28;45709;-65
2023/03/14 07:50:54;;;;;;;;;4.67;2.67;;;;;10.81;52.59;99694.75;5023697;28;46866;-65
2023/03/14 07:53:21;;;;;;;;;2.67;1.00;;;;;10.80;51.55;99692.94;5033326;28;45162;-66
2023/03/14 07:55:47;;;;;;;;;3.67;2.00;;;;;10.77;51.95;99690.25;5025384;28;45734;-64
2023/03/14 07:58:13;;;;;;;;;2.67;1.67;;;;;10.87;51.31;99720.59;5014289;28;46927;-66
2023/03/14 08:00:38;;;;;;;;;4.33;2.33;;;;;10.92;50.79;99724.22;5013640;28;45853;-62
2023/03/14 08:03:04;;;;;;;;;2.67;1.00;;;;;10.86;50.42;99730.41;5015104;28;45470;-65
2023/03/14 08:05:29;;;;;;;;;3.00;2.33;;;;;10.81;50.32;99737.50;5016260;28;45442;-65
2023/03/14 08:07:54;;;;;;;;;3.25;1.75;;;;;10.77;51.27;99750.81;5020851;28;45348;-65
2023/03/14 08:10:23;;;;;;;;;4.00;1.00;;;;;10.83;52.00;99753.53;5013663;28;45525;-66
2023/03/14 08:12:55;;;;;;;;;3.33;1.00;;;;;10.81;51.11;99760.66;5013640;28;45698;-65
2023/03/14 08:15:21;;;;;;;;;3.00;2.00;;;;;10.88;51.38;99757.16;5009077;28;45285;-66
2023/03/14 08:17:50;;;;;;;;;2.00;2.00;;;;;10.96;50.75;99767.91;5008973;28;47358;-66
2023/03/14 08:20:20;;;;;;;;;6.00;2.00;;;;;11.01;50.84;99768.84;5013864;28;45813;-66
2023/03/14 08:22:45;;;;;;;;;4.00;2.75;;;;;11.05;50.73;99776.91;5012338;28;45730;-66
2023/03/14 08:25:11;;;;;;;;;2.33;1.00;;;;;10.70;50.18;99713.34;5008499;28;45630;-66
2023/03/14 08:27:38;;;;;;;;;4.67;3.00;;;;;11.07;50.90;99795.63;5013661;28;45304;-66
2023/03/14 08:30:17;;;;;;;;;4.00;4.00;;;;;11.03;50.67;99791.13;5012802;28;46063;-65
2023/03/14 08:32:42;;;;;;;;;1.00;1.00;;;;;11.00;51.32;99796.44;5008095;28;45646;-67
2023/03/14 08:35:09;;;;;;;;;3.00;3.00;;;;;11.03;51.09;99794.69;5012606;28;46929;-66
2023/03/14 08:37:35;;;;;;;;;1.67;1.67;;;;;11.02;51.22;99800.03;5013487;28;47175;-66
2023/03/14 08:40:06;;;;;;;;;7.00;1.33;;;;;11.04;51.49;99809.84;5013008;28;45500;-67
2023/03/14 08:42:31;;;;;;;;;2.67;2.67;;;;;11.08;51.27;99808.09;5014341;28;45482;-69
2023/03/14 08:44:57;;;;;;;;;2.33;2.00;;;;;11.17;51.45;99804.59;5010753;28;45403;-66
2023/03/14 08:47:22;;;;;;;;;2.00;2.00;;;;;11.25;51.62;99822.53;5013710;28;49636;-66
2023/03/14 08:49:48;;;;;;;;;4.67;2.33;;;;;11.23;51.45;99831.41;5014145;28;45388;-65
2023/03/14 08:52:14;;;;;;;;;3.00;2.00;;;;;11.13;52.04;99838.44;5014734;28;45528;-66
2023/03/14 08:54:40;;;;;;;;;2.00;0.33;;;;;11.03;51.57;99840.13;5016685;28;45564;-66
2023/03/14 08:57:05;;;;;;;;;4.67;1.00;;;;;10.94;51.64;99831.13;5014015;28;46085;-67
2023/03/14 08:59:30;;;;;;;;;1.67;1.67;;;;;11.05;52.32;99842.81;5012516;28;45588;-65
2023/03/14 09:01:56;;;;;;;;;2.33;1.00;;;;;11.18;52.01;99846.50;5013395;28;45539;-65
2023/03/14 09:04:21;;;;;;;;;3.33;1.33;;;;;11.17;51.12;99832.25;5019358;28;45581;-66
2023/03/14 09:06:47;;;;;;;;;2.00;1.00;;;;;11.44;50.97;99858.31;5015156;28;45375;-65
2023/03/14 09:09:13;;;;;;;;;4.67;1.33;;;;;11.51;50.65;99853.03;5013664;28;46125;-67
2023/03/14 09:11:38;;;;;;;;;4.00;1.00;;;;;11.57;50.14;99869.16;5014407;28;45582;-66
2023/03/14 09:14:04;;;;;;;;;3.00;2.67;;;;;11.55;50.88;99865.53;5014083;28;45540;-65
2023/03/14 09:16:29;;;;;;;;;0.67;0.67;;;;;11.50;51.31;99875.31;4996160;28;45533;-65
2023/03/14 09:18:57;;;;;;;;;2.00;0.67;;;;;11.46;50.83;99876.19;5027060;28;45411;-65
2023/03/14 09:21:22;;;;;;;;;5.33;2.00;;;;;11.43;52.85;99893.09;5013061;28;45654;-66
2023/03/14 09:23:48;;;;;;;;;1.00;1.00;;;;;11.44;53.03;99908.25;4995806;28;45439;-67
2023/03/14 09:26:14;;;;;;;;;3.67;1.00;;;;;11.39;55.76;99918.91;5013711;28;47140;-66
2023/03/14 09:28:39;;;;;;;;;3.75;3.25;;;;;11.35;57.66;99935.81;5013924;28;45505;-66
2023/03/14 09:31:09;;;;;;;;;3.33;2.00;;;;;11.44;58.31;99951.94;5013537;28;45422;-68
2023/03/14 09:33:35;;;;;;;;;2.67;2.33;;;;;11.34;58.79;99966.09;5014385;28;45380;-67
2023/03/14 09:36:02;;;;;;;;;17.75;15.25;;;;;11.26;58.64;99959.78;5013945;28;45501;-67
2023/03/14 09:38:27;;;;;;;;;0.00;0.00;;;;;11.03;58.77;99962.19;5022800;28;45559;-66
2023/03/14 09:40:54;;;;;;;;;1.67;1.00;;;;;10.88;59.44;99976.28;4996029;28;45592;-66
2023/03/14 09:43:22;;;;;;;;;2.67;2.33;;;;;10.67;60.42;99984.91;5011766;28;45506;-67
2023/03/14 09:45:50;;;;;;;;;1.67;0.67;;;;;10.53;60.25;99997.19;5014757;28;46142;-67
2023/03/14 09:48:27;;;;;;;;;2.00;0.67;;;;;10.43;60.66;99991.69;5015717;28;45453;-67
2023/03/14 09:50:55;;;;;;;;;4.67;3.00;;;;;10.47;60.99;99998.88;5013862;28;45398;-66
2023/03/14 09:53:27;;;;;;;;;5.75;4.00;;;;;10.49;60.04;99998.88;5013931;28;45515;-66
2023/03/14 09:55:55;;;;;;;;;4.00;2.25;;;;;10.56;60.96;100013.22;5013303;28;46538;-64
2023/03/14 09:58:22;;;;;;;;;7.25;3.75;;;;;10.64;60.55;100009.81;5013168;28;45432;-69
2023/03/14 10:00:50;;;;;;;;;9.00;3.00;;;;;10.67;60.82;100027.63;5014607;28;45392;-66
2023/03/14 10:03:30;;;;;;;;;3.00;2.00;;;;;10.66;61.86;100053.47;5013468;28;45914;-66
2023/03/14 10:05:56;;;;;;;;;0.00;0.00;;;;;10.68;60.75;100062.38;5013434;28;45421;-65
2023/03/14 10:08:21;;;;;;;;;1.67;0.00;;;;;10.49;60.99;100044.28;5010605;28;45663;-67
2023/03/14 10:10:47;;;;;;;;;1.67;1.67;;;;;10.52;60.64;100039.00;5012515;28;45348;-66
2023/03/14 10:13:15;;;;;;;;;3.00;1.00;;;;;10.60;60.43;100061.38;5012858;28;45452;-66
2023/03/14 10:15:40;;;;;;;;;0.33;0.33;;;;;10.60;61.09;100065.84;5013219;28;46187;-66
2023/03/14 10:18:14;;;;;;;;;0.00;0.00;;;;;10.65;59.32;100064.13;5025842;28;45612;-68
2023/03/14 10:20:43;;;;;;;;;1.25;0.25;;;;;10.58;57.71;100059.56;5018665;28;45493;-66
2023/03/14 10:23:11;;;;;;;;;1.00;1.00;;;;;10.64;57.98;100065.91;5015373;28;45490;-67
2023/03/14 10:25:45;;;;;;;;;0.00;0.00;;;;;10.65;58.70;100074.81;5016013;28;46366;-67
2023/03/14 10:28:29;;;;;;;;;2.00;0.67;;;;;10.67;56.67;100063.28;5016885;28;45383;-66
2023/03/14 10:30:56;;;;;;;;;1.00;1.00;;;;;10.62;56.88;100081.00;5009818;28;45521;-67
2023/03/14 10:33:21;;;;;;;;;5.00;1.00;;;;;10.68;57.18;100093.56;5016555;28;45508;-66
2023/03/14 10:35:57;;;;;;;;;1.00;1.00;;;;;10.75;56.97;100097.22;5022680;28;46010;-66
2023/03/14 10:38:26;;;;;;;;;2.00;2.00;;;;;10.84;55.23;100106.28;5019411;28;45465;-66
2023/03/14 10:40:53;;;;;;;;;2.00;0.00;;;;;10.87;55.34;100100.97;5017123;28;45655;-67
2023/03/14 10:43:26;;;;;;;;;2.00;1.00;;;;;11.02;55.17;100102.97;5002419;28;45499;-65
2023/03/14 10:46:14;;;;;;;;;1.67;1.00;;;;;11.18;54.99;100105.84;5016618;28;46453;-66
2023/03/14 10:48:42;;;;;;;;;0.00;0.00;;;;;11.21;54.14;100093.41;5015784;28;45451;-66
2023/03/14 10:51:25;;;;;;;;;1.00;1.00;;;;;11.37;53.08;100115.91;5017096;28;45318;-68
2023/03/14 10:54:03;;;;;;;;;0.00;0.00;;;;;11.57;51.10;100134.00;5017099;28;45733;-66
2023/03/14 10:56:37;;;;;;;;;1.00;0.00;;;;;11.57;50.12;100125.97;5016341;28;45450;-68
2023/03/14 10:59:11;;;;;;;;;2.67;1.00;;;;;11.49;50.43;100139.25;5016142;28;45273;-67
2023/03/14 11:01:48;;;;;;;;;2.33;1.67;;;;;11.42;49.60;100137.38;5016669;28;45388;-67
2023/03/14 11:04:45;;;;;;;;;0.00;0.00;;;;;11.32;49.67;100143.47;5015497;28;45623;-66
2023/03/14 11:07:36;;;;;;;;;0.00;0.00;;;;;11.31;50.11;100144.34;5010907;28;46126;-66
2023/03/14 11:10:18;;;;;;;;;5.00;2.00;;;;;11.36;50.37;100142.63;5016050;28;45739;-67
2023/03/14 11:13:20;;;;;;;;;1.00;0.00;;;;;11.40;49.66;100150.72;5016362;28;45716;-66
2023/03/14 11:16:07;;;;;;;;;6.00;2.00;;;;;11.51;49.18;100152.63;5016316;28;45849;-66
2023/03/14 11:18:49;;;;;;;;;2.33;1.67;;;;;11.59;48.60;100145.59;5028288;28;46650;-64
2023/03/14 11:21:48;;;;;;;;;3.00;1.67;;;;;11.66;49.03;100157.28;5006278;28;45562;-65
2023/03/14 11:24:34;;;;;;;;;1.00;0.33;;;;;11.75;48.66;100154.72;5015502;28;45397;-66
2023/03/14 11:27:15;;;;;;;;;1.00;1.00;;;;;11.87;47.91;100149.50;5011119;28;45456;-65
2023/03/14 11:29:53;;;;;;;;;2.67;2.67;;;;;12.03;48.04;100161.34;5015754;28;45490;-65
2023/03/14 11:32:44;;;;;;;;;3.00;2.00;;;;;12.22;47.35;100167.75;5015842;28;45533;-67
2023/03/14 11:35:20;;;;;;;;;4.33;1.00;;;;;12.21;45.04;100149.00;5015771;28;45436;-66